sensor_id;sensor_type;location;lat;lon;timestamp;P1;durP1;ratioP1;P2;durP2;ratioP2
36353;SDS011;22383;51.114;13.666;2022-09-03T00:01:15;5.80;;;2.00;;
36353;SDS011;22383;51.114;13.666;2022-09-03T00:03:49;5.28;;;1.48;;
36353;SDS011;22383;51.114;13.666;2022-09-03T00:06:41;3.78;;;1.30;;
36353;SDS011;22383;51.114;13.666;2022-09-03T00:09:26;3.22;;;1.30;;
36353;SDS011;22383;51.114;13.666;2022-09-03T00:12:00;1.95;;;1.30;;
36353;SDS011;22383;51.114;13.666;2022-09-03T00:19:51;4.72;;;2.22;;
36353;SDS011;22383;51.114;13.666;2022-09-03T00:24:53;4.50;;;1.67;;
36353;SDS011;22383;51.114;13.666;2022-09-03T00:27:23;4.68;;;1.90;;
36353;SDS011;22383;51.114;13.666;2022-09-03T00:29:54;2.30;;;1.40;;
36353;SDS011;22383;51.114;13.666;2022-09-03T00:32:56;3.50;;;1.95;;
36353;SDS011;22383;51.114;13.666;2022-09-03T00:35:22;3.35;;;1.20;;
36353;SDS011;22383;51.114;13.666;2022-09-03T00:37:53;5.43;;;1.70;;
36353;SDS011;22383;51.114;13.666;2022-09-03T00:40:29;3.20;;;1.20;;
36353;SDS011;22383;51.114;13.666;2022-09-03T00:46:22;6.25;;;1.70;;
36353;SDS011;22383;51.114;13.666;2022-09-03T00:51:49;3.03;;;1.35;;
36353;SDS011;22383;51.114;13.666;2022-09-03T01:00:13;3.25;;;1.60;;
36353;SDS011;22383;51.114;13.666;2022-09-03T01:02:46;2.75;;;1.58;;
36353;SDS011;22383;51.114;13.666;2022-09-03T01:13:56;3.47;;;2.08;;
36353;SDS011;22383;51.114;13.666;2022-09-03T01:36:46;2.38;;;1.38;;
36353;SDS011;22383;51.114;13.666;2022-09-03T01:58:50;4.20;;;1.30;;
36353;SDS011;22383;51.114;13.666;2022-09-03T02:01:42;4.00;;;1.75;;
36353;SDS011;22383;51.114;13.666;2022-09-03T02:04:18;2.17;;;1.40;;
36353;SDS011;22383;51.114;13.666;2022-09-03T02:06:49;2.00;;;1.25;;
36353;SDS011;22383;51.114;13.666;2022-09-03T02:09:18;3.67;;;1.35;;
36353;SDS011;22383;51.114;13.666;2022-09-03T02:11:58;2.80;;;1.42;;
36353;SDS011;22383;51.114;13.666;2022-09-03T02:14:34;3.35;;;1.40;;
36353;SDS011;22383;51.114;13.666;2022-09-03T02:17:02;4.22;;;1.52;;
36353;SDS011;22383;51.114;13.666;2022-09-03T02:19:31;2.47;;;1.00;;
36353;SDS011;22383;51.114;13.666;2022-09-03T02:22:00;4.20;;;1.50;;
36353;SDS011;22383;51.114;13.666;2022-09-03T02:24:27;3.83;;;1.42;;
36353;SDS011;22383;51.114;13.666;2022-09-03T02:26:55;3.45;;;1.38;;
36353;SDS011;22383;51.114;13.666;2022-09-03T02:29:22;2.30;;;1.45;;
36353;SDS011;22383;51.114;13.666;2022-09-03T02:31:50;3.38;;;1.45;;
36353;SDS011;22383;51.114;13.666;2022-09-03T02:34:17;2.15;;;1.20;;
36353;SDS011;22383;51.114;13.666;2022-09-03T02:36:45;2.33;;;1.40;;
36353;SDS011;22383;51.114;13.666;2022-09-03T02:39:14;3.17;;;1.20;;
36353;SDS011;22383;51.114;13.666;2022-09-03T02:41:42;3.85;;;1.42;;
36353;SDS011;22383;51.114;13.666;2022-09-03T02:44:11;4.15;;;1.40;;
36353;SDS011;22383;51.114;13.666;2022-09-03T02:46:47;2.15;;;1.27;;
36353;SDS011;22383;51.114;13.666;2022-09-03T02:49:18;1.92;;;1.30;;
36353;SDS011;22383;51.114;13.666;2022-09-03T02:51:45;2.92;;;1.45;;
36353;SDS011;22383;51.114;13.666;2022-09-03T02:54:12;7.43;;;1.40;;
36353;SDS011;22383;51.114;13.666;2022-09-03T02:56:44;2.13;;;1.25;;
36353;SDS011;22383;51.114;13.666;2022-09-03T02:59:14;7.75;;;2.00;;
36353;SDS011;22383;51.114;13.666;2022-09-03T03:01:42;3.45;;;2.15;;
36353;SDS011;22383;51.114;13.666;2022-09-03T03:04:12;5.28;;;1.80;;
36353;SDS011;22383;51.114;13.666;2022-09-03T03:06:40;2.53;;;1.50;;
36353;SDS011;22383;51.114;13.666;2022-09-03T03:09:07;2.42;;;1.30;;
36353;SDS011;22383;51.114;13.666;2022-09-03T03:11:34;2.35;;;1.80;;
36353;SDS011;22383;51.114;13.666;2022-09-03T03:14:02;3.33;;;1.70;;
36353;SDS011;22383;51.114;13.666;2022-09-03T03:16:30;2.95;;;1.50;;
36353;SDS011;22383;51.114;13.666;2022-09-03T03:18:57;3.10;;;1.65;;
36353;SDS011;22383;51.114;13.666;2022-09-03T03:21:26;5.13;;;1.52;;
36353;SDS011;22383;51.114;13.666;2022-09-03T03:23:53;3.80;;;1.50;;
36353;SDS011;22383;51.114;13.666;2022-09-03T03:26:20;3.00;;;1.80;;
36353;SDS011;22383;51.114;13.666;2022-09-03T03:28:56;3.10;;;1.45;;
36353;SDS011;22383;51.114;13.666;2022-09-03T03:31:25;5.18;;;1.45;;
36353;SDS011;22383;51.114;13.666;2022-09-03T03:33:54;1.98;;;1.27;;
36353;SDS011;22383;51.114;13.666;2022-09-03T03:36:23;2.40;;;1.58;;
36353;SDS011;22383;51.114;13.666;2022-09-03T03:38:52;2.78;;;1.83;;
36353;SDS011;22383;51.114;13.666;2022-09-03T03:41:22;4.38;;;1.67;;
36353;SDS011;22383;51.114;13.666;2022-09-03T03:43:51;3.08;;;1.80;;
36353;SDS011;22383;51.114;13.666;2022-09-03T03:46:21;4.32;;;2.22;;
36353;SDS011;22383;51.114;13.666;2022-09-03T03:48:49;3.67;;;2.15;;
36353;SDS011;22383;51.114;13.666;2022-09-03T03:51:18;4.38;;;2.42;;
36353;SDS011;22383;51.114;13.666;2022-09-03T03:53:45;3.97;;;2.17;;
36353;SDS011;22383;51.114;13.666;2022-09-03T03:56:14;3.08;;;2.00;;
36353;SDS011;22383;51.114;13.666;2022-09-03T03:58:42;3.50;;;2.50;;
36353;SDS011;22383;51.114;13.666;2022-09-03T04:01:11;3.10;;;2.10;;
36353;SDS011;22383;51.114;13.666;2022-09-03T04:03:40;3.25;;;2.30;;
36353;SDS011;22383;51.114;13.666;2022-09-03T04:06:08;5.43;;;2.83;;
36353;SDS011;22383;51.114;13.666;2022-09-03T04:08:41;5.28;;;2.40;;
36353;SDS011;22383;51.114;13.666;2022-09-03T04:11:13;6.93;;;2.83;;
36353;SDS011;22383;51.114;13.666;2022-09-03T04:13:42;4.07;;;2.72;;
36353;SDS011;22383;51.114;13.666;2022-09-03T04:16:12;3.63;;;2.45;;
36353;SDS011;22383;51.114;13.666;2022-09-03T04:18:41;4.22;;;2.50;;
36353;SDS011;22383;51.114;13.666;2022-09-03T04:21:12;4.57;;;2.58;;
36353;SDS011;22383;51.114;13.666;2022-09-03T04:23:42;4.85;;;2.55;;
36353;SDS011;22383;51.114;13.666;2022-09-03T04:26:11;6.00;;;2.90;;
36353;SDS011;22383;51.114;13.666;2022-09-03T04:28:43;5.18;;;2.20;;
36353;SDS011;22383;51.114;13.666;2022-09-03T04:33:39;4.65;;;2.13;;
36353;SDS011;22383;51.114;13.666;2022-09-03T04:36:09;4.60;;;2.28;;
36353;SDS011;22383;51.114;13.666;2022-09-03T04:38:38;5.43;;;2.35;;
36353;SDS011;22383;51.114;13.666;2022-09-03T04:41:08;3.55;;;2.15;;
36353;SDS011;22383;51.114;13.666;2022-09-03T04:43:37;6.60;;;2.28;;
36353;SDS011;22383;51.114;13.666;2022-09-03T04:46:05;4.40;;;2.15;;
36353;SDS011;22383;51.114;13.666;2022-09-03T04:48:46;7.35;;;2.58;;
36353;SDS011;22383;51.114;13.666;2022-09-03T04:51:17;2.47;;;2.03;;
36353;SDS011;22383;51.114;13.666;2022-09-03T04:53:57;4.93;;;2.58;;
36353;SDS011;22383;51.114;13.666;2022-09-03T04:56:26;2.67;;;1.67;;
36353;SDS011;22383;51.114;13.666;2022-09-03T04:58:56;4.13;;;1.88;;
36353;SDS011;22383;51.114;13.666;2022-09-03T05:01:28;5.25;;;1.80;;
36353;SDS011;22383;51.114;13.666;2022-09-03T05:03:58;10.65;;;2.88;;
36353;SDS011;22383;51.114;13.666;2022-09-03T05:06:26;4.70;;;1.80;;
36353;SDS011;22383;51.114;13.666;2022-09-03T05:08:55;2.88;;;1.90;;
36353;SDS011;22383;51.114;13.666;2022-09-03T05:11:23;3.97;;;1.63;;
36353;SDS011;22383;51.114;13.666;2022-09-03T05:13:53;3.03;;;1.40;;
36353;SDS011;22383;51.114;13.666;2022-09-03T05:16:22;4.00;;;1.98;;
36353;SDS011;22383;51.114;13.666;2022-09-03T05:18:54;3.40;;;1.70;;
36353;SDS011;22383;51.114;13.666;2022-09-03T05:21:22;4.53;;;2.95;;
36353;SDS011;22383;51.114;13.666;2022-09-03T05:26:20;3.67;;;1.85;;
36353;SDS011;22383;51.114;13.666;2022-09-03T05:28:52;2.95;;;1.50;;
36353;SDS011;22383;51.114;13.666;2022-09-03T05:31:21;3.60;;;1.80;;
36353;SDS011;22383;51.114;13.666;2022-09-03T05:33:55;3.08;;;1.48;;
36353;SDS011;22383;51.114;13.666;2022-09-03T05:36:26;5.07;;;1.95;;
36353;SDS011;22383;51.114;13.666;2022-09-03T05:38:57;3.88;;;2.20;;
36353;SDS011;22383;51.114;13.666;2022-09-03T05:41:25;5.53;;;2.15;;
36353;SDS011;22383;51.114;13.666;2022-09-03T05:43:54;2.72;;;1.95;;
36353;SDS011;22383;51.114;13.666;2022-09-03T05:46:22;3.60;;;1.98;;
36353;SDS011;22383;51.114;13.666;2022-09-03T05:48:59;4.38;;;1.85;;
36353;SDS011;22383;51.114;13.666;2022-09-03T05:51:28;2.40;;;1.65;;
36353;SDS011;22383;51.114;13.666;2022-09-03T05:53:56;3.60;;;1.90;;
36353;SDS011;22383;51.114;13.666;2022-09-03T05:56:25;5.07;;;2.35;;
36353;SDS011;22383;51.114;13.666;2022-09-03T05:58:55;2.80;;;2.00;;
36353;SDS011;22383;51.114;13.666;2022-09-03T06:01:29;2.78;;;1.73;;
36353;SDS011;22383;51.114;13.666;2022-09-03T06:04:03;3.00;;;1.90;;
36353;SDS011;22383;51.114;13.666;2022-09-03T06:06:36;15.65;;;2.97;;
36353;SDS011;22383;51.114;13.666;2022-09-03T06:09:09;3.53;;;2.10;;
36353;SDS011;22383;51.114;13.666;2022-09-03T06:11:41;3.72;;;2.15;;
36353;SDS011;22383;51.114;13.666;2022-09-03T06:14:12;3.78;;;2.00;;
36353;SDS011;22383;51.114;13.666;2022-09-03T06:16:41;3.50;;;2.30;;
36353;SDS011;22383;51.114;13.666;2022-09-03T06:19:10;3.28;;;2.17;;
36353;SDS011;22383;51.114;13.666;2022-09-03T06:21:39;4.82;;;2.17;;
36353;SDS011;22383;51.114;13.666;2022-09-03T06:24:12;3.53;;;2.53;;
36353;SDS011;22383;51.114;13.666;2022-09-03T06:26:46;5.85;;;2.95;;
36353;SDS011;22383;51.114;13.666;2022-09-03T06:29:16;3.65;;;1.80;;
36353;SDS011;22383;51.114;13.666;2022-09-03T06:31:45;3.55;;;1.77;;
36353;SDS011;22383;51.114;13.666;2022-09-03T06:34:14;4.15;;;1.70;;
36353;SDS011;22383;51.114;13.666;2022-09-03T06:36:44;6.97;;;2.20;;
36353;SDS011;22383;51.114;13.666;2022-09-03T06:39:12;3.58;;;1.67;;
36353;SDS011;22383;51.114;13.666;2022-09-03T06:41:39;4.63;;;1.50;;
36353;SDS011;22383;51.114;13.666;2022-09-03T06:44:07;3.72;;;1.65;;
36353;SDS011;22383;51.114;13.666;2022-09-03T06:46:38;3.10;;;1.60;;
36353;SDS011;22383;51.114;13.666;2022-09-03T06:49:09;3.53;;;1.52;;
36353;SDS011;22383;51.114;13.666;2022-09-03T06:51:37;2.80;;;1.50;;
36353;SDS011;22383;51.114;13.666;2022-09-03T06:54:06;3.30;;;1.40;;
36353;SDS011;22383;51.114;13.666;2022-09-03T06:56:35;3.20;;;1.23;;
36353;SDS011;22383;51.114;13.666;2022-09-03T06:59:07;3.50;;;1.45;;
36353;SDS011;22383;51.114;13.666;2022-09-03T07:01:37;4.15;;;1.40;;
36353;SDS011;22383;51.114;13.666;2022-09-03T07:04:11;4.60;;;1.63;;
36353;SDS011;22383;51.114;13.666;2022-09-03T07:06:40;8.07;;;2.03;;
36353;SDS011;22383;51.114;13.666;2022-09-03T07:09:09;2.92;;;1.38;;
36353;SDS011;22383;51.114;13.666;2022-09-03T07:11:38;3.58;;;1.52;;
36353;SDS011;22383;51.114;13.666;2022-09-03T07:14:13;3.40;;;1.60;;
36353;SDS011;22383;51.114;13.666;2022-09-03T07:16:41;3.45;;;1.50;;
36353;SDS011;22383;51.114;13.666;2022-09-03T07:19:09;3.17;;;2.08;;
36353;SDS011;22383;51.114;13.666;2022-09-03T07:21:39;2.67;;;1.50;;
36353;SDS011;22383;51.114;13.666;2022-09-03T07:24:15;4.93;;;1.60;;
36353;SDS011;22383;51.114;13.666;2022-09-03T07:26:42;4.85;;;1.65;;
36353;SDS011;22383;51.114;13.666;2022-09-03T07:29:12;2.17;;;1.50;;
36353;SDS011;22383;51.114;13.666;2022-09-03T07:31:42;3.70;;;1.67;;
36353;SDS011;22383;51.114;13.666;2022-09-03T07:36:40;2.50;;;1.80;;
36353;SDS011;22383;51.114;13.666;2022-09-03T07:39:15;3.38;;;1.98;;
36353;SDS011;22383;51.114;13.666;2022-09-03T07:41:44;3.67;;;1.65;;
36353;SDS011;22383;51.114;13.666;2022-09-03T07:44:12;3.15;;;1.48;;
36353;SDS011;22383;51.114;13.666;2022-09-03T07:46:42;3.15;;;1.42;;
36353;SDS011;22383;51.114;13.666;2022-09-03T07:49:11;3.13;;;1.60;;
36353;SDS011;22383;51.114;13.666;2022-09-03T07:51:39;5.43;;;1.25;;
36353;SDS011;22383;51.114;13.666;2022-09-03T07:54:07;2.05;;;1.50;;
36353;SDS011;22383;51.114;13.666;2022-09-03T07:56:38;3.05;;;1.20;;
36353;SDS011;22383;51.114;13.666;2022-09-03T07:59:06;4.72;;;1.52;;
36353;SDS011;22383;51.114;13.666;2022-09-03T08:01:35;3.03;;;1.30;;
36353;SDS011;22383;51.114;13.666;2022-09-03T08:04:07;3.88;;;1.60;;
36353;SDS011;22383;51.114;13.666;2022-09-03T08:06:36;2.72;;;1.48;;
36353;SDS011;22383;51.114;13.666;2022-09-03T08:09:05;2.08;;;1.30;;
36353;SDS011;22383;51.114;13.666;2022-09-03T08:11:38;6.22;;;1.73;;
36353;SDS011;22383;51.114;13.666;2022-09-03T08:14:08;3.95;;;1.20;;
36353;SDS011;22383;51.114;13.666;2022-09-03T08:16:42;4.72;;;1.58;;
36353;SDS011;22383;51.114;13.666;2022-09-03T08:19:12;6.13;;;1.63;;
36353;SDS011;22383;51.114;13.666;2022-09-03T08:21:40;4.90;;;1.50;;
36353;SDS011;22383;51.114;13.666;2022-09-03T08:24:08;3.28;;;1.42;;
36353;SDS011;22383;51.114;13.666;2022-09-03T08:26:41;5.18;;;1.50;;
36353;SDS011;22383;51.114;13.666;2022-09-03T08:29:17;3.55;;;1.60;;
36353;SDS011;22383;51.114;13.666;2022-09-03T08:31:44;2.95;;;1.40;;
36353;SDS011;22383;51.114;13.666;2022-09-03T08:34:12;5.63;;;1.58;;
36353;SDS011;22383;51.114;13.666;2022-09-03T08:36:40;3.40;;;1.55;;
36353;SDS011;22383;51.114;13.666;2022-09-03T08:39:08;4.20;;;1.55;;
36353;SDS011;22383;51.114;13.666;2022-09-03T08:47:13;4.13;;;1.50;;
36353;SDS011;22383;51.114;13.666;2022-09-03T08:52:52;5.50;;;2.15;;
36353;SDS011;22383;51.114;13.666;2022-09-03T08:55:22;2.97;;;1.52;;
36353;SDS011;22383;51.114;13.666;2022-09-03T09:09:02;4.22;;;1.27;;
36353;SDS011;22383;51.114;13.666;2022-09-03T09:11:54;4.95;;;1.38;;
36353;SDS011;22383;51.114;13.666;2022-09-03T09:14:43;3.60;;;1.30;;
36353;SDS011;22383;51.114;13.666;2022-09-03T09:22:55;5.15;;;1.75;;
36353;SDS011;22383;51.114;13.666;2022-09-03T09:25:27;3.75;;;1.60;;
36353;SDS011;22383;51.114;13.666;2022-09-03T09:27:58;4.03;;;1.73;;
36353;SDS011;22383;51.114;13.666;2022-09-03T09:30:28;4.97;;;1.70;;
36353;SDS011;22383;51.114;13.666;2022-09-03T09:32:57;5.43;;;1.90;;
36353;SDS011;22383;51.114;13.666;2022-09-03T09:35:26;4.32;;;1.60;;
36353;SDS011;22383;51.114;13.666;2022-09-03T09:37:54;6.15;;;1.40;;
36353;SDS011;22383;51.114;13.666;2022-09-03T09:40:29;2.38;;;1.55;;
36353;SDS011;22383;51.114;13.666;2022-09-03T09:43:14;4.65;;;1.50;;
36353;SDS011;22383;51.114;13.666;2022-09-03T09:45:50;3.78;;;1.83;;
36353;SDS011;22383;51.114;13.666;2022-09-03T09:51:10;4.47;;;1.83;;
36353;SDS011;22383;51.114;13.666;2022-09-03T09:53:40;4.82;;;1.58;;
36353;SDS011;22383;51.114;13.666;2022-09-03T09:56:08;5.50;;;1.50;;
36353;SDS011;22383;51.114;13.666;2022-09-03T09:58:47;4.82;;;1.48;;
36353;SDS011;22383;51.114;13.666;2022-09-03T10:01:20;3.90;;;1.63;;
36353;SDS011;22383;51.114;13.666;2022-09-03T10:03:55;4.38;;;1.75;;
36353;SDS011;22383;51.114;13.666;2022-09-03T10:06:25;4.35;;;1.50;;
36353;SDS011;22383;51.114;13.666;2022-09-03T10:09:16;3.97;;;1.75;;
36353;SDS011;22383;51.114;13.666;2022-09-03T10:11:48;4.10;;;1.40;;
36353;SDS011;22383;51.114;13.666;2022-09-03T10:17:34;4.45;;;1.60;;
36353;SDS011;22383;51.114;13.666;2022-09-03T10:20:10;4.00;;;1.35;;
36353;SDS011;22383;51.114;13.666;2022-09-03T10:22:54;4.05;;;1.55;;
36353;SDS011;22383;51.114;13.666;2022-09-03T10:25:45;4.47;;;1.48;;
36353;SDS011;22383;51.114;13.666;2022-09-03T10:28:16;4.03;;;1.55;;
36353;SDS011;22383;51.114;13.666;2022-09-03T10:33:29;3.42;;;1.55;;
36353;SDS011;22383;51.114;13.666;2022-09-03T10:39:09;4.22;;;1.60;;
36353;SDS011;22383;51.114;13.666;2022-09-03T10:41:49;3.05;;;1.20;;
36353;SDS011;22383;51.114;13.666;2022-09-03T10:44:56;1.95;;;1.33;;
36353;SDS011;22383;51.114;13.666;2022-09-03T10:50:36;2.88;;;1.58;;
36353;SDS011;22383;51.114;13.666;2022-09-03T10:56:30;2.97;;;1.50;;
36353;SDS011;22383;51.114;13.666;2022-09-03T11:02:19;5.30;;;1.40;;
36353;SDS011;22383;51.114;13.666;2022-09-03T11:05:11;10.05;;;2.25;;
36353;SDS011;22383;51.114;13.666;2022-09-03T11:07:46;4.03;;;1.25;;
36353;SDS011;22383;51.114;13.666;2022-09-03T11:10:22;3.03;;;1.87;;
36353;SDS011;22383;51.114;13.666;2022-09-03T11:15:28;3.63;;;1.90;;
36353;SDS011;22383;51.114;13.666;2022-09-03T11:18:12;3.13;;;1.52;;
36353;SDS011;22383;51.114;13.666;2022-09-03T11:20:46;4.00;;;1.88;;
36353;SDS011;22383;51.114;13.666;2022-09-03T11:23:16;5.00;;;1.70;;
36353;SDS011;22383;51.114;13.666;2022-09-03T11:25:51;4.95;;;1.85;;
36353;SDS011;22383;51.114;13.666;2022-09-03T11:28:41;2.20;;;1.20;;
36353;SDS011;22383;51.114;13.666;2022-09-03T11:34:27;1.83;;;1.33;;
36353;SDS011;22383;51.114;13.666;2022-09-03T11:40:28;9.85;;;1.80;;
36353;SDS011;22383;51.114;13.666;2022-09-03T11:43:12;14.43;;;2.38;;
36353;SDS011;22383;51.114;13.666;2022-09-03T11:46:01;5.38;;;1.20;;
36353;SDS011;22383;51.114;13.666;2022-09-03T11:53:56;3.35;;;1.25;;
36353;SDS011;22383;51.114;13.666;2022-09-03T11:56:34;2.33;;;1.30;;
36353;SDS011;22383;51.114;13.666;2022-09-03T11:59:14;2.88;;;1.65;;
36353;SDS011;22383;51.114;13.666;2022-09-03T12:04:55;3.05;;;1.63;;
36353;SDS011;22383;51.114;13.666;2022-09-03T12:08:03;2.38;;;1.20;;
36353;SDS011;22383;51.114;13.666;2022-09-03T12:10:51;2.45;;;1.30;;
36353;SDS011;22383;51.114;13.666;2022-09-03T12:13:46;2.22;;;1.40;;
36353;SDS011;22383;51.114;13.666;2022-09-03T12:16:56;3.35;;;1.52;;
36353;SDS011;22383;51.114;13.666;2022-09-03T12:20:10;2.20;;;1.17;;
36353;SDS011;22383;51.114;13.666;2022-09-03T12:22:28;3.45;;;1.20;;
36353;SDS011;22383;51.114;13.666;2022-09-03T12:25:12;3.95;;;1.77;;
36353;SDS011;22383;51.114;13.666;2022-09-03T12:27:52;4.18;;;1.20;;
36353;SDS011;22383;51.114;13.666;2022-09-03T12:30:24;2.78;;;1.67;;
36353;SDS011;22383;51.114;13.666;2022-09-03T12:33:02;3.75;;;1.60;;
36353;SDS011;22383;51.114;13.666;2022-09-03T12:35:31;4.88;;;1.85;;
36353;SDS011;22383;51.114;13.666;2022-09-03T12:40:51;2.95;;;1.73;;
36353;SDS011;22383;51.114;13.666;2022-09-03T12:43:48;2.00;;;1.23;;
36353;SDS011;22383;51.114;13.666;2022-09-03T12:46:21;3.10;;;1.50;;
36353;SDS011;22383;51.114;13.666;2022-09-03T12:49:03;5.43;;;1.80;;
36353;SDS011;22383;51.114;13.666;2022-09-03T12:51:57;7.32;;;1.63;;
36353;SDS011;22383;51.114;13.666;2022-09-03T12:54:33;4.70;;;1.50;;
36353;SDS011;22383;51.114;13.666;2022-09-03T12:57:11;2.55;;;1.20;;
36353;SDS011;22383;51.114;13.666;2022-09-03T12:59:46;1.20;;;1.10;;
36353;SDS011;22383;51.114;13.666;2022-09-03T13:02:24;3.40;;;1.30;;
36353;SDS011;22383;51.114;13.666;2022-09-03T13:04:54;3.80;;;1.38;;
36353;SDS011;22383;51.114;13.666;2022-09-03T13:10:01;3.05;;;1.40;;
36353;SDS011;22383;51.114;13.666;2022-09-03T13:12:41;5.78;;;1.60;;
36353;SDS011;22383;51.114;13.666;2022-09-03T13:15:16;2.63;;;1.30;;
36353;SDS011;22383;51.114;13.666;2022-09-03T13:17:52;1.90;;;1.48;;
36353;SDS011;22383;51.114;13.666;2022-09-03T13:20:36;3.80;;;1.52;;
36353;SDS011;22383;51.114;13.666;2022-09-03T13:32:01;4.93;;;1.33;;
36353;SDS011;22383;51.114;13.666;2022-09-03T13:34:53;2.15;;;1.45;;
36353;SDS011;22383;51.114;13.666;2022-09-03T13:37:48;3.70;;;1.50;;
36353;SDS011;22383;51.114;13.666;2022-09-03T13:40:47;1.83;;;1.33;;
36353;SDS011;22383;51.114;13.666;2022-09-03T13:44:07;2.95;;;1.27;;
36353;SDS011;22383;51.114;13.666;2022-09-03T13:49:40;3.03;;;1.40;;
36353;SDS011;22383;51.114;13.666;2022-09-03T13:55:43;7.20;;;1.98;;
36353;SDS011;22383;51.114;13.666;2022-09-03T13:58:28;8.85;;;1.50;;
36353;SDS011;22383;51.114;13.666;2022-09-03T14:03:59;1.42;;;1.13;;
36353;SDS011;22383;51.114;13.666;2022-09-03T14:06:39;5.43;;;1.38;;
36353;SDS011;22383;51.114;13.666;2022-09-03T14:12:36;2.45;;;1.45;;
36353;SDS011;22383;51.114;13.666;2022-09-03T14:15:29;3.30;;;1.50;;
36353;SDS011;22383;51.114;13.666;2022-09-03T14:18:09;1.90;;;1.30;;
36353;SDS011;22383;51.114;13.666;2022-09-03T14:20:43;3.40;;;1.35;;
36353;SDS011;22383;51.114;13.666;2022-09-03T14:23:44;2.97;;;1.50;;
36353;SDS011;22383;51.114;13.666;2022-09-03T14:26:27;5.82;;;1.75;;
36353;SDS011;22383;51.114;13.666;2022-09-03T14:29:15;2.63;;;1.40;;
36353;SDS011;22383;51.114;13.666;2022-09-03T14:38:07;4.40;;;1.47;;
36353;SDS011;22383;51.114;13.666;2022-09-03T14:49:42;2.58;;;1.60;;
36353;SDS011;22383;51.114;13.666;2022-09-03T14:52:32;3.92;;;1.35;;
36353;SDS011;22383;51.114;13.666;2022-09-03T15:01:02;2.38;;;1.33;;
36353;SDS011;22383;51.114;13.666;2022-09-03T15:12:02;5.80;;;1.65;;
36353;SDS011;22383;51.114;13.666;2022-09-03T15:14:51;2.95;;;1.42;;
36353;SDS011;22383;51.114;13.666;2022-09-03T15:20:15;3.17;;;1.45;;
36353;SDS011;22383;51.114;13.666;2022-09-03T15:23:01;2.13;;;1.63;;
36353;SDS011;22383;51.114;13.666;2022-09-03T15:36:40;3.33;;;1.40;;
36353;SDS011;22383;51.114;13.666;2022-09-03T15:39:15;1.40;;;1.25;;
36353;SDS011;22383;51.114;13.666;2022-09-03T15:42:00;3.42;;;1.23;;
36353;SDS011;22383;51.114;13.666;2022-09-03T15:44:35;2.60;;;1.23;;
36353;SDS011;22383;51.114;13.666;2022-09-03T15:47:10;5.30;;;1.80;;
36353;SDS011;22383;51.114;13.666;2022-09-03T15:49:59;3.33;;;1.42;;
36353;SDS011;22383;51.114;13.666;2022-09-03T16:00:48;2.72;;;1.60;;
36353;SDS011;22383;51.114;13.666;2022-09-03T16:03:22;3.58;;;1.40;;
36353;SDS011;22383;51.114;13.666;2022-09-03T16:06:02;2.38;;;1.33;;
36353;SDS011;22383;51.114;13.666;2022-09-03T16:08:40;1.90;;;1.40;;
36353;SDS011;22383;51.114;13.666;2022-09-03T16:16:58;2.75;;;1.88;;
36353;SDS011;22383;51.114;13.666;2022-09-03T16:19:36;2.53;;;1.88;;
36353;SDS011;22383;51.114;13.666;2022-09-03T16:22:17;1.83;;;1.20;;
36353;SDS011;22383;51.114;13.666;2022-09-03T16:27:27;3.28;;;1.42;;
36353;SDS011;22383;51.114;13.666;2022-09-03T16:32:57;4.45;;;1.50;;
36353;SDS011;22383;51.114;13.666;2022-09-03T16:38:47;3.83;;;1.58;;
36353;SDS011;22383;51.114;13.666;2022-09-03T16:41:27;2.55;;;1.40;;
36353;SDS011;22383;51.114;13.666;2022-09-03T16:58:02;6.22;;;1.50;;
36353;SDS011;22383;51.114;13.666;2022-09-03T17:00:44;3.95;;;1.58;;
36353;SDS011;22383;51.114;13.666;2022-09-03T17:11:58;2.70;;;1.42;;
36353;SDS011;22383;51.114;13.666;2022-09-03T17:25:58;4.75;;;2.10;;
36353;SDS011;22383;51.114;13.666;2022-09-03T17:31:45;4.35;;;1.70;;
36353;SDS011;22383;51.114;13.666;2022-09-03T17:37:48;4.28;;;1.40;;
36353;SDS011;22383;51.114;13.666;2022-09-03T17:40:39;2.45;;;1.38;;
36353;SDS011;22383;51.114;13.666;2022-09-03T17:43:18;3.88;;;1.70;;
36353;SDS011;22383;51.114;13.666;2022-09-03T17:48:47;6.22;;;2.55;;
36353;SDS011;22383;51.114;13.666;2022-09-03T17:53:52;6.70;;;2.83;;
36353;SDS011;22383;51.114;13.666;2022-09-03T17:56:27;7.53;;;3.13;;
36353;SDS011;22383;51.114;13.666;2022-09-03T17:59:14;5.47;;;3.13;;
36353;SDS011;22383;51.114;13.666;2022-09-03T18:04:44;4.65;;;2.95;;
36353;SDS011;22383;51.114;13.666;2022-09-03T18:10:07;6.80;;;3.50;;
36353;SDS011;22383;51.114;13.666;2022-09-03T18:13:40;6.90;;;3.45;;
36353;SDS011;22383;51.114;13.666;2022-09-03T18:19:35;9.32;;;3.45;;
36353;SDS011;22383;51.114;13.666;2022-09-03T18:21:59;7.53;;;3.47;;
36353;SDS011;22383;51.114;13.666;2022-09-03T18:24:54;9.43;;;3.30;;
36353;SDS011;22383;51.114;13.666;2022-09-03T18:27:45;7.25;;;3.88;;
36353;SDS011;22383;51.114;13.666;2022-09-03T18:33:29;5.78;;;3.05;;
36353;SDS011;22383;51.114;13.666;2022-09-03T18:36:16;10.25;;;4.32;;
36353;SDS011;22383;51.114;13.666;2022-09-03T18:39:15;6.05;;;3.60;;
36353;SDS011;22383;51.114;13.666;2022-09-03T18:49:19;8.80;;;3.97;;
36353;SDS011;22383;51.114;13.666;2022-09-03T18:58:18;8.88;;;4.10;;
36353;SDS011;22383;51.114;13.666;2022-09-03T19:01:20;8.30;;;4.38;;
36353;SDS011;22383;51.114;13.666;2022-09-03T19:07:14;10.15;;;4.30;;
36353;SDS011;22383;51.114;13.666;2022-09-03T19:10:14;10.50;;;4.43;;
36353;SDS011;22383;51.114;13.666;2022-09-03T19:16:12;10.32;;;4.53;;
36353;SDS011;22383;51.114;13.666;2022-09-03T19:22:09;7.22;;;3.78;;
36353;SDS011;22383;51.114;13.666;2022-09-03T19:25:02;6.55;;;4.40;;
36353;SDS011;22383;51.114;13.666;2022-09-03T19:28:13;10.43;;;4.22;;
36353;SDS011;22383;51.114;13.666;2022-09-03T19:37:15;10.70;;;4.50;;
36353;SDS011;22383;51.114;13.666;2022-09-03T19:46:32;8.35;;;4.30;;
36353;SDS011;22383;51.114;13.666;2022-09-03T19:49:28;6.78;;;4.10;;
36353;SDS011;22383;51.114;13.666;2022-09-03T19:52:37;8.25;;;4.32;;
36353;SDS011;22383;51.114;13.666;2022-09-03T19:55:33;5.97;;;4.00;;
36353;SDS011;22383;51.114;13.666;2022-09-03T19:58:22;8.80;;;3.72;;
36353;SDS011;22383;51.114;13.666;2022-09-03T20:01:11;7.05;;;4.25;;
36353;SDS011;22383;51.114;13.666;2022-09-03T20:03:59;6.82;;;4.38;;
36353;SDS011;22383;51.114;13.666;2022-09-03T20:07:11;9.38;;;4.22;;
36353;SDS011;22383;51.114;13.666;2022-09-03T20:09:59;8.85;;;4.80;;
36353;SDS011;22383;51.114;13.666;2022-09-03T20:12:51;9.80;;;4.65;;
36353;SDS011;22383;51.114;13.666;2022-09-03T20:15:46;8.13;;;4.38;;
36353;SDS011;22383;51.114;13.666;2022-09-03T20:21:39;5.95;;;4.22;;
36353;SDS011;22383;51.114;13.666;2022-09-03T20:30:19;8.02;;;4.20;;
36353;SDS011;22383;51.114;13.666;2022-09-03T20:35:39;7.45;;;4.00;;
36353;SDS011;22383;51.114;13.666;2022-09-03T20:41:37;5.97;;;4.05;;
36353;SDS011;22383;51.114;13.666;2022-09-03T20:52:20;7.82;;;4.10;;
36353;SDS011;22383;51.114;13.666;2022-09-03T20:55:21;5.95;;;3.78;;
36353;SDS011;22383;51.114;13.666;2022-09-03T21:00:23;5.18;;;3.83;;
36353;SDS011;22383;51.114;13.666;2022-09-03T21:08:43;5.75;;;3.75;;
36353;SDS011;22383;51.114;13.666;2022-09-03T21:19:53;6.60;;;4.03;;
36353;SDS011;22383;51.114;13.666;2022-09-03T21:22:50;7.25;;;4.30;;
36353;SDS011;22383;51.114;13.666;2022-09-03T21:25:29;7.00;;;4.10;;
36353;SDS011;22383;51.114;13.666;2022-09-03T21:30:39;8.00;;;4.80;;
36353;SDS011;22383;51.114;13.666;2022-09-03T21:33:15;9.52;;;4.78;;
36353;SDS011;22383;51.114;13.666;2022-09-03T21:35:51;11.73;;;5.03;;